createdAt,value
2019-04-03T00:01:37.280Z,49.10
2019-04-03T00:04:26.925Z,49.13
2019-04-03T00:07:17.364Z,49.13
2019-04-03T00:10:08.896Z,49.15
2019-04-03T00:13:00.021Z,49.14
2019-04-03T00:15:49.984Z,49.16
2019-04-03T00:18:39.621Z,49.17
2019-04-03T00:21:29.157Z,49.19
2019-04-03T00:24:19.199Z,49.27
2019-04-03T00:27:09.255Z,49.28
2019-04-03T00:29:59.324Z,49.38
2019-04-03T00:32:49.335Z,49.62
2019-04-03T00:35:38.866Z,49.74
2019-04-03T00:38:29.020Z,49.91
2019-04-03T00:41:18.949Z,50.00
2019-04-03T00:44:08.928Z,50.14
2019-04-03T00:46:58.805Z,50.28
2019-04-03T00:49:48.827Z,50.37
2019-04-03T00:52:38.675Z,50.58
2019-04-03T00:55:28.238Z,50.94
2019-04-03T00:58:39.085Z,51.28
2019-04-03T01:01:28.956Z,51.22
2019-04-03T01:04:21.954Z,51.29
2019-04-03T01:07:11.773Z,51.32
2019-04-03T01:10:02.033Z,51.51
2019-04-03T01:12:53.752Z,51.58
2019-04-03T01:15:43.570Z,51.79
2019-04-03T01:18:35.298Z,52.04
2019-04-03T01:21:25.329Z,52.32
2019-04-03T01:24:15.489Z,52.80
2019-04-03T01:27:05.618Z,52.71
2019-04-03T01:29:55.945Z,52.79
2019-04-03T01:32:46.807Z,53.11
2019-04-03T01:35:37.239Z,53.26
2019-04-03T01:38:28.327Z,53.03
2019-04-03T01:41:20.218Z,52.83
2019-04-03T01:44:09.458Z,52.88
2019-04-03T01:46:59.362Z,52.84
2019-04-03T01:49:49.395Z,52.91
2019-04-03T01:52:39.174Z,53.00
2019-04-03T01:55:30.841Z,53.22
2019-04-03T01:58:20.374Z,53.31
2019-04-03T02:01:10.142Z,53.59
2019-04-03T02:04:00.020Z,53.71
2019-04-03T02:06:49.831Z,53.61
2019-04-03T02:09:40.085Z,53.56
2019-04-03T02:12:30.192Z,53.63
2019-04-03T02:15:21.696Z,53.59
2019-04-03T02:18:11.752Z,53.54
2019-04-03T02:21:01.960Z,53.51
2019-04-03T02:23:51.670Z,53.56
2019-04-03T02:26:41.655Z,53.57
2019-04-03T02:29:31.264Z,53.63
2019-04-03T02:32:23.137Z,53.78
2019-04-03T02:35:12.658Z,53.81
2019-04-03T02:38:02.645Z,53.89
2019-04-03T02:40:52.594Z,53.93
2019-04-03T02:43:45.437Z,53.96
2019-04-03T02:46:34.387Z,54.05
2019-04-03T02:49:23.807Z,54.11
2019-04-03T02:52:13.827Z,54.22
2019-04-03T02:55:06.725Z,54.23
2019-04-03T02:57:55.670Z,54.40
2019-04-03T03:00:45.749Z,54.49
2019-04-03T03:03:35.113Z,54.59
2019-04-03T03:06:25.216Z,54.62
2019-04-03T03:09:15.731Z,54.66
2019-04-03T03:12:05.644Z,54.71
2019-04-03T03:14:55.638Z,54.69
2019-04-03T03:17:46.196Z,54.76
2019-04-03T03:20:39.518Z,54.72
2019-04-03T03:23:29.529Z,54.78
2019-04-03T03:26:20.887Z,54.79
2019-04-03T03:29:17.665Z,54.95
2019-04-03T03:32:12.677Z,54.96
2019-04-03T03:35:07.615Z,55.06
2019-04-03T03:37:48.054Z,55.14
2019-04-03T03:40:39.368Z,55.21
2019-04-03T03:43:30.027Z,55.29
2019-04-03T03:46:20.269Z,55.29
2019-04-03T03:49:10.511Z,55.38
2019-04-03T03:52:04.515Z,55.46
2019-04-03T03:54:55.909Z,55.83
2019-04-03T03:57:46.256Z,55.76
2019-04-03T04:00:37.002Z,55.86
2019-04-03T04:03:27.091Z,55.81
2019-04-03T04:06:17.621Z,55.80
2019-04-03T04:09:08.509Z,55.81
2019-04-03T04:11:59.445Z,55.83
2019-04-03T04:14:49.824Z,55.93
2019-04-03T04:17:40.625Z,55.98
2019-04-03T04:20:31.229Z,56.02
2019-04-03T04:23:24.513Z,56.06
2019-04-03T04:26:13.170Z,56.18
2019-04-03T04:29:03.410Z,56.17
2019-04-03T04:31:53.634Z,56.17
2019-04-03T04:34:43.803Z,56.18
2019-04-03T04:37:33.231Z,56.35
2019-04-03T04:40:24.190Z,56.50
2019-04-03T04:43:13.678Z,56.64
2019-04-03T04:46:03.326Z,56.60
2019-04-03T04:48:53.118Z,56.66
2019-04-03T04:51:42.710Z,56.80
2019-04-03T04:54:32.769Z,56.84
2019-04-03T04:57:22.133Z,56.84
2019-04-03T05:00:13.658Z,56.82
2019-04-03T05:03:03.983Z,56.86
2019-04-03T05:05:54.082Z,56.94
2019-04-03T05:08:44.175Z,56.98
2019-04-03T05:11:34.340Z,57.01
2019-04-03T05:14:24.156Z,57.01
2019-04-03T05:17:14.395Z,57.00
2019-04-03T05:20:05.547Z,56.95
2019-04-03T05:22:55.746Z,57.02
2019-04-03T05:25:45.939Z,57.06
2019-04-03T05:28:35.794Z,57.13
2019-04-03T05:31:25.779Z,57.14
2019-04-03T05:34:17.731Z,57.16
2019-04-03T05:37:07.249Z,57.19
2019-04-03T05:39:56.858Z,57.18
2019-04-03T05:42:46.941Z,57.20
2019-04-03T05:45:37.012Z,57.26
2019-04-03T05:48:26.762Z,57.24
2019-04-03T05:51:16.666Z,57.21
2019-04-03T05:54:07.985Z,57.26
2019-04-03T05:56:58.334Z,57.22
2019-04-03T05:59:58.674Z,57.27
2019-04-03T06:02:39.467Z,57.22
2019-04-03T06:05:29.025Z,57.13
2019-04-03T06:08:19.950Z,57.07
2019-04-03T06:11:10.283Z,56.90
2019-04-03T06:14:00.094Z,56.77
2019-04-03T06:16:50.160Z,56.89
2019-04-03T06:19:40.283Z,56.60
2019-04-03T06:22:30.704Z,56.37
2019-04-03T06:25:20.938Z,56.31
2019-04-03T06:28:12.613Z,56.12
2019-04-03T06:31:02.579Z,55.71
2019-04-03T06:33:52.504Z,55.66
2019-04-03T06:36:42.905Z,55.33
2019-04-03T06:39:32.948Z,55.23
2019-04-03T06:42:22.796Z,55.15
2019-04-03T06:45:15.566Z,55.07
2019-04-03T06:48:05.547Z,55.02
2019-04-03T06:50:55.934Z,54.65
2019-04-03T06:53:45.964Z,54.61
2019-04-03T06:56:35.926Z,54.48
2019-04-03T06:59:26.568Z,54.33
2019-04-03T07:02:16.250Z,54.11
2019-04-03T07:05:06.293Z,54.16
2019-04-03T07:07:56.337Z,53.95
2019-04-03T07:10:55.179Z,53.34
2019-04-03T07:13:37.959Z,52.33
2019-04-03T07:16:28.881Z,51.94
2019-04-03T07:19:19.232Z,50.34
2019-04-03T07:22:08.665Z,49.45
2019-04-03T07:24:58.826Z,49.07
2019-04-03T07:27:48.627Z,48.74
2019-04-03T07:30:38.462Z,48.56
2019-04-03T07:33:28.720Z,48.44
2019-04-03T07:36:19.312Z,48.04
2019-04-03T07:39:11.127Z,47.62
2019-04-03T07:42:01.198Z,47.75
2019-04-03T07:44:50.978Z,47.91
2019-04-03T07:47:40.937Z,47.79
2019-04-03T07:50:31.315Z,46.33
2019-04-03T07:53:21.862Z,46.50
2019-04-03T07:56:11.587Z,46.57
2019-04-03T07:59:03.250Z,46.01
2019-04-03T08:01:52.513Z,45.63
2019-04-03T08:04:42.476Z,45.20
2019-04-03T08:07:32.188Z,44.00
2019-04-03T08:10:22.097Z,43.42
2019-04-03T08:13:12.332Z,42.39
2019-04-03T08:16:02.331Z,42.52
2019-04-03T08:18:52.532Z,41.90
2019-04-03T08:21:42.264Z,41.39
2019-04-03T08:24:31.753Z,41.65
2019-04-03T08:27:23.447Z,41.00
2019-04-03T08:30:14.609Z,40.72
2019-04-03T08:33:15.223Z,40.38
2019-04-03T08:35:55.375Z,40.33
2019-04-03T08:38:46.623Z,39.95
2019-04-03T08:41:37.921Z,40.42
2019-04-03T08:44:29.578Z,40.52
2019-04-03T08:47:20.750Z,40.82
2019-04-03T08:50:13.291Z,41.00
2019-04-03T08:53:07.414Z,40.90
2019-04-03T08:55:58.271Z,41.51
2019-04-03T08:58:50.748Z,42.00
2019-04-03T09:01:40.962Z,42.32
2019-04-03T09:04:30.823Z,42.49
2019-04-03T09:07:20.943Z,42.27
2019-04-03T09:10:13.101Z,41.75
2019-04-03T09:13:15.436Z,41.66
2019-04-03T09:15:53.965Z,41.38
2019-04-03T09:18:44.174Z,41.08
2019-04-03T09:21:34.399Z,40.72
2019-04-03T09:24:24.191Z,41.56
2019-04-03T09:27:14.011Z,41.96
2019-04-03T09:30:06.167Z,42.25
2019-04-03T09:32:59.010Z,41.62
2019-04-03T09:35:48.909Z,41.68
2019-04-03T09:38:40.718Z,41.17
2019-04-03T09:41:30.541Z,41.46
2019-04-03T09:44:20.687Z,40.84
2019-04-03T09:47:10.721Z,40.87
2019-04-03T09:50:00.796Z,40.50
2019-04-03T09:52:54.241Z,40.51
2019-04-03T09:55:43.480Z,40.91
2019-04-03T09:58:35.625Z,40.71
2019-04-03T10:01:24.459Z,40.42
2019-04-03T10:04:17.030Z,40.76
2019-04-03T10:07:07.212Z,41.01
2019-04-03T10:09:57.045Z,41.30
2019-04-03T10:12:48.899Z,41.13
2019-04-03T10:15:38.670Z,40.81
2019-04-03T10:18:28.534Z,40.80
2019-04-03T10:21:19.882Z,40.12
2019-04-03T10:24:10.124Z,39.65
2019-04-03T10:27:00.306Z,38.85
2019-04-03T10:29:50.824Z,38.41
2019-04-03T10:32:41.446Z,36.67
2019-04-03T10:35:31.824Z,35.94
2019-04-03T10:38:22.013Z,35.09
2019-04-03T10:41:12.062Z,35.53
2019-04-03T10:44:01.891Z,35.26
2019-04-03T10:46:52.082Z,35.52
2019-04-03T10:49:41.727Z,34.34
2019-04-03T10:52:32.769Z,34.76
2019-04-03T10:55:22.814Z,34.93
2019-04-03T10:58:12.359Z,35.31
2019-04-03T11:01:02.186Z,35.56
2019-04-03T11:03:52.076Z,35.34
2019-04-03T11:06:42.251Z,34.94
2019-04-03T11:09:33.412Z,35.66
2019-04-03T11:12:23.301Z,35.84
2019-04-03T11:15:14.181Z,35.43
2019-04-03T11:18:04.883Z,34.82
2019-04-03T11:20:54.519Z,35.47
2019-04-03T11:23:45.573Z,34.91
2019-04-03T11:26:35.279Z,35.51
2019-04-03T11:29:24.989Z,35.36
2019-04-03T11:32:15.096Z,34.50
2019-04-03T11:35:05.591Z,34.79
2019-04-03T11:37:56.186Z,35.12
2019-04-03T11:40:49.359Z,34.36
2019-04-03T11:43:37.859Z,34.57
2019-04-03T11:46:27.868Z,34.61
2019-04-03T11:49:20.106Z,35.04
2019-04-03T11:52:10.495Z,35.07
2019-04-03T11:55:00.902Z,35.04
2019-04-03T11:57:51.405Z,34.32
2019-04-03T12:00:46.446Z,33.61
2019-04-03T12:03:36.436Z,33.76
2019-04-03T12:06:26.500Z,32.18
2019-04-03T12:09:16.838Z,31.60
2019-04-03T12:12:08.950Z,31.08
2019-04-03T12:14:57.747Z,28.73
2019-04-03T12:17:47.823Z,29.50
2019-04-03T12:20:50.390Z,29.65
2019-04-03T12:23:40.660Z,29.42
2019-04-03T12:26:30.303Z,28.44
2019-04-03T12:29:21.523Z,28.50
2019-04-03T12:32:10.996Z,28.17
2019-04-03T12:35:01.513Z,28.73
2019-04-03T12:37:51.305Z,29.43
2019-04-03T12:40:41.303Z,30.26
2019-04-03T12:43:31.119Z,29.79
2019-04-03T12:46:37.356Z,30.11
2019-04-03T12:49:28.119Z,29.75
2019-04-03T12:52:17.814Z,29.76
2019-04-03T12:55:08.115Z,29.40
2019-04-03T12:57:58.268Z,29.12
2019-04-03T13:00:49.104Z,28.98
2019-04-03T13:03:39.481Z,26.89
2019-04-03T13:06:29.601Z,28.58
2019-04-03T13:09:19.537Z,28.26
2019-04-03T13:12:09.704Z,28.15
2019-04-03T13:14:59.787Z,28.00
2019-04-03T13:17:50.011Z,28.16
2019-04-03T13:20:39.860Z,28.15
2019-04-03T13:23:30.260Z,27.73
2019-04-03T13:26:20.137Z,27.58
2019-04-03T13:29:09.682Z,28.18
2019-04-03T13:31:59.653Z,28.05
2019-04-03T13:34:50.406Z,28.46
2019-04-03T13:37:40.198Z,25.80
2019-04-03T13:40:31.000Z,27.80
2019-04-03T13:43:22.333Z,28.57
2019-04-03T13:46:13.327Z,27.93
2019-04-03T13:49:03.596Z,28.83
2019-04-03T13:51:57.992Z,29.46
2019-04-03T13:54:46.319Z,29.38
2019-04-03T13:57:36.299Z,27.46
2019-04-03T14:00:26.589Z,28.49
2019-04-03T14:03:18.605Z,27.89
2019-04-03T14:06:08.579Z,28.91
2019-04-03T14:08:58.547Z,29.61
2019-04-03T14:11:47.946Z,28.61
2019-04-03T14:14:37.559Z,29.75
2019-04-03T14:17:28.238Z,30.19
2019-04-03T14:20:18.852Z,30.76
2019-04-03T14:23:09.140Z,30.88
2019-04-03T14:26:06.121Z,31.35
2019-04-03T14:28:50.930Z,31.59
2019-04-03T14:31:40.641Z,31.69
2019-04-03T14:34:31.208Z,32.17
2019-04-03T14:37:25.498Z,32.34
2019-04-03T14:40:13.646Z,32.76
2019-04-03T14:43:04.038Z,33.02
2019-04-03T14:45:53.871Z,33.09
2019-04-03T14:48:43.839Z,33.27
2019-04-03T14:51:33.742Z,33.63
2019-04-03T14:54:25.085Z,33.98
2019-04-03T14:57:20.862Z,34.35
2019-04-03T15:00:23.358Z,34.71
2019-04-03T15:02:58.555Z,35.11
2019-04-03T15:05:48.055Z,34.92
2019-04-03T15:08:37.921Z,33.87
2019-04-03T15:11:28.202Z,34.50
2019-04-03T15:14:21.859Z,34.56
2019-04-03T15:17:10.716Z,34.58
2019-04-03T15:20:00.692Z,34.69
2019-04-03T15:22:50.670Z,34.78
2019-04-03T15:25:42.620Z,34.93
2019-04-03T15:28:32.414Z,34.95
2019-04-03T15:31:24.388Z,35.07
2019-04-03T15:34:15.004Z,35.15
2019-04-03T15:37:06.139Z,35.30
2019-04-03T15:39:58.396Z,35.27
2019-04-03T15:42:49.231Z,35.39
2019-04-03T15:45:38.918Z,35.82
2019-04-03T15:48:29.043Z,36.02
2019-04-03T15:51:18.564Z,36.39
2019-04-03T15:54:08.362Z,36.41
2019-04-03T15:56:58.860Z,36.59
2019-04-03T15:59:51.692Z,36.71
2019-04-03T16:02:44.530Z,36.74
2019-04-03T16:05:35.705Z,37.00
2019-04-03T16:08:24.889Z,37.03
2019-04-03T16:11:14.968Z,37.18
2019-04-03T16:14:06.425Z,37.39
2019-04-03T16:16:56.161Z,37.45
2019-04-03T16:19:46.367Z,37.50
2019-04-03T16:22:36.905Z,37.57
2019-04-03T16:25:26.630Z,37.44
2019-04-03T16:28:16.573Z,37.62
2019-04-03T16:31:06.649Z,37.71
2019-04-03T16:33:57.153Z,37.94
2019-04-03T16:36:48.735Z,38.02
2019-04-03T16:39:39.181Z,38.25
2019-04-03T16:42:29.273Z,38.23
2019-04-03T16:45:19.493Z,38.31
2019-04-03T16:48:09.487Z,38.49
2019-04-03T16:51:00.694Z,38.56
2019-04-03T16:53:52.051Z,38.75
2019-04-03T16:56:42.094Z,38.80
2019-04-03T16:59:35.438Z,38.89
2019-04-03T17:02:24.766Z,38.99
2019-04-03T17:05:15.549Z,39.19
2019-04-03T17:08:06.425Z,39.21
2019-04-03T17:10:56.564Z,39.25
2019-04-03T17:13:46.985Z,39.47
2019-04-03T17:16:39.125Z,39.58
2019-04-03T17:19:29.576Z,39.49
2019-04-03T17:22:19.942Z,39.63
2019-04-03T17:25:10.913Z,39.72
2019-04-03T17:28:05.996Z,39.87
2019-04-03T17:30:52.454Z,40.00
2019-04-03T17:33:42.569Z,40.07
2019-04-03T17:36:32.419Z,40.18
2019-04-03T17:39:22.130Z,40.29
2019-04-03T17:42:12.461Z,40.47
2019-04-03T17:45:02.470Z,40.46
2019-04-03T17:47:54.009Z,40.51
2019-04-03T17:50:45.371Z,40.56
2019-04-03T17:53:36.662Z,40.60
2019-04-03T17:56:28.090Z,40.75
2019-04-03T17:59:19.038Z,40.91
2019-04-03T18:02:09.027Z,41.06
2019-04-03T18:04:59.126Z,41.15
2019-04-03T18:07:49.184Z,41.11
2019-04-03T18:10:38.993Z,41.22
2019-04-03T18:13:28.510Z,41.33
2019-04-03T18:16:17.701Z,41.39
2019-04-03T18:19:07.662Z,41.55
2019-04-03T18:21:57.642Z,41.69
2019-04-03T18:24:47.735Z,41.88
2019-04-03T18:27:38.179Z,41.94
2019-04-03T18:30:28.572Z,41.96
2019-04-03T18:33:19.180Z,42.17
2019-04-03T18:36:09.272Z,42.28
2019-04-03T18:38:58.911Z,42.42
2019-04-03T18:41:48.768Z,42.53
2019-04-03T18:44:38.886Z,42.59
2019-04-03T18:47:40.426Z,42.75
2019-04-03T18:50:20.364Z,42.95
2019-04-03T18:53:10.378Z,43.03
2019-04-03T18:56:00.417Z,43.06
2019-04-03T18:58:49.710Z,43.19
2019-04-03T19:01:39.313Z,43.46
2019-04-03T19:04:29.084Z,43.49
2019-04-03T19:07:20.197Z,43.63
2019-04-03T19:10:11.171Z,43.74
2019-04-03T19:13:01.463Z,43.85
2019-04-03T19:15:51.411Z,43.93
2019-04-03T19:18:41.282Z,44.06
2019-04-03T19:21:31.393Z,44.24
2019-04-03T19:24:20.847Z,44.28
2019-04-03T19:27:10.626Z,44.47
2019-04-03T19:30:00.468Z,44.61
2019-04-03T19:32:50.703Z,44.77
2019-04-03T19:35:41.104Z,44.90
2019-04-03T19:38:30.822Z,44.96
2019-04-03T19:41:20.673Z,45.06
2019-04-03T19:44:10.715Z,45.09
2019-04-03T19:47:00.618Z,45.14
2019-04-03T19:49:50.583Z,45.15
2019-04-03T19:52:42.154Z,45.16
2019-04-03T19:55:32.121Z,45.19
2019-04-03T19:58:22.386Z,45.23
2019-04-03T20:01:11.884Z,45.41
2019-04-03T20:04:01.498Z,45.44
2019-04-03T20:06:52.959Z,45.55
2019-04-03T20:09:43.103Z,45.47
2019-04-03T20:12:33.164Z,45.44
2019-04-03T20:15:23.398Z,45.52
2019-04-03T20:18:13.308Z,45.46
2019-04-03T20:21:03.890Z,45.48
2019-04-03T20:23:54.083Z,45.64
2019-04-03T20:26:46.384Z,45.47
2019-04-03T20:29:35.671Z,45.49
2019-04-03T20:32:25.730Z,45.59
2019-04-03T20:35:18.035Z,45.48
2019-04-03T20:38:06.644Z,45.52
2019-04-03T20:40:56.531Z,45.53
2019-04-03T20:43:47.316Z,45.63
2019-04-03T20:46:37.607Z,45.59
2019-04-03T20:49:27.330Z,45.52
2019-04-03T20:52:17.319Z,45.46
2019-04-03T20:55:08.216Z,45.40
2019-04-03T20:57:58.036Z,45.38
2019-04-03T21:00:51.511Z,45.32
2019-04-03T21:03:39.410Z,45.33
2019-04-03T21:06:29.272Z,45.27
2019-04-03T21:09:19.346Z,45.22
2019-04-03T21:12:09.129Z,45.22
2019-04-03T21:15:08.150Z,45.24
2019-04-03T21:17:50.604Z,45.22
2019-04-03T21:20:40.439Z,45.29
2019-04-03T21:23:33.322Z,45.19
2019-04-03T21:26:22.534Z,45.22
2019-04-03T21:29:12.640Z,45.22
2019-04-03T21:32:02.782Z,45.25
2019-04-03T21:34:52.895Z,45.27
2019-04-03T21:37:42.675Z,45.30
2019-04-03T21:40:32.715Z,45.32
2019-04-03T21:43:22.170Z,45.34
2019-04-03T21:46:11.974Z,45.41
2019-04-03T21:49:01.752Z,45.49
2019-04-03T21:51:52.357Z,45.58
2019-04-03T21:54:42.529Z,45.74
2019-04-03T21:57:31.976Z,45.66
2019-04-03T22:01:09.057Z,45.75
2019-04-03T22:03:59.273Z,45.68
2019-04-03T22:06:49.123Z,45.70
2019-04-03T22:09:39.102Z,45.82
2019-04-03T22:12:28.988Z,45.82
2019-04-03T22:15:19.062Z,45.84
2019-04-03T22:18:09.566Z,45.87
2019-04-03T22:20:59.918Z,45.84
2019-04-03T22:23:51.699Z,45.89
2019-04-03T22:26:41.648Z,45.91
2019-04-03T22:29:31.247Z,45.95
2019-04-03T22:32:21.020Z,45.96
2019-04-03T22:35:10.976Z,45.97
2019-04-03T22:38:01.003Z,46.15
2019-04-03T22:40:51.021Z,46.22
2019-04-03T22:43:41.159Z,46.28
2019-04-03T22:46:30.837Z,46.52
2019-04-03T22:49:20.527Z,46.47
2019-04-03T22:52:10.632Z,46.64
2019-04-03T22:55:00.530Z,46.56
2019-04-03T22:57:50.611Z,46.48
2019-04-03T23:00:40.934Z,46.65
2019-04-03T23:03:31.995Z,46.88
2019-04-03T23:06:22.796Z,46.94
2019-04-03T23:09:13.066Z,46.86
2019-04-03T23:12:03.025Z,46.76
2019-04-03T23:14:53.175Z,46.89
2019-04-03T23:17:42.895Z,46.94
2019-04-03T23:20:34.650Z,47.09
2019-04-03T23:23:27.048Z,47.09
2019-04-03T23:26:15.151Z,47.13
2019-04-03T23:29:05.259Z,47.31
2019-04-03T23:31:55.690Z,47.46
2019-04-03T23:34:45.260Z,47.53
2019-04-03T23:37:35.442Z,47.62
2019-04-03T23:40:25.283Z,47.69
2019-04-03T23:43:15.093Z,47.75
2019-04-03T23:46:05.213Z,47.84
2019-04-03T23:48:54.955Z,47.83
2019-04-03T23:51:45.029Z,47.97
2019-04-03T23:54:35.007Z,48.08
2019-04-03T23:57:25.266Z,48.27
